Time;durP1;ratioP1;P1;durP2;ratioP2;P2;SDS_P1;SDS_P2;PMS_P1;PMS_P2;Temp;Humidity;BMP_temperature;BMP_pressure;BME280_temperature;BME280_humidity;BME280_pressure;Samples;Min_cycle;Max_cycle;Signal;HPM_P1;HPM_P2
2023/10/01 00:00:17;;;;;;;30.77;29.10;;;;;;;;;;5006193;28;20049;-63
2023/10/01 00:02:42;;;;;;;28.23;26.73;;;;;;;;;;5004169;28;20045;-63
2023/10/01 00:05:09;;;;;;;23.33;21.90;;;;;;;;;;5003912;28;20099;-63
2023/10/01 00:07:37;;;;;;;19.13;17.92;;;;;;;;;;5005372;28;20495;-63
2023/10/01 00:10:10;;;;;;;16.90;15.90;;;;;;;;;;5005221;28;20034;-63
2023/10/01 00:12:40;;;;;;;17.25;16.25;;;;;;;;;;4987078;28;20030;-63
2023/10/01 00:15:10;;;;;;;18.73;17.73;;;;;;;;;;5006623;28;20369;-63
2023/10/01 00:17:36;;;;;;;19.05;17.90;;;;;;;;;;5006652;28;20038;-63
2023/10/01 00:20:14;;;;;;;19.80;18.60;;;;;;;;;;5005608;28;20058;-63
2023/10/01 00:22:39;;;;;;;18.67;17.67;;;;;;;;;;5003396;28;20172;-63
2023/10/01 00:25:06;;;;;;;18.40;17.30;;;;;;;;;;4987091;28;20144;-63
2023/10/01 00:27:32;;;;;;;17.85;16.45;;;;;;;;;;5003900;28;20137;-65
2023/10/01 00:29:57;;;;;;;17.52;16.52;;;;;;;;;;5006128;28;20207;-65
2023/10/01 00:32:22;;;;;;;17.73;16.73;;;;;;;;;;5005041;28;20042;-63
2023/10/01 00:34:48;;;;;;;16.67;15.68;;;;;;;;;;4984687;28;20034;-66
2023/10/01 00:37:13;;;;;;;19.92;18.52;;;;;;;;;;5003538;28;20041;-63
2023/10/01 00:39:39;;;;;;;20.67;19.45;;;;;;;;;;5004766;28;20033;-63
2023/10/01 00:42:06;;;;;;;22.45;21.23;;;;;;;;;;5002849;28;20201;-63
2023/10/01 00:44:34;;;;;;;24.00;22.73;;;;;;;;;;4985827;28;20116;-62
2023/10/01 00:47:00;;;;;;;22.20;20.77;;;;;;;;;;4988796;28;20030;-63
2023/10/01 00:49:27;;;;;;;21.58;20.38;;;;;;;;;;5003550;28;20041;-62
2023/10/01 00:51:53;;;;;;;22.85;21.60;;;;;;;;;;5001177;28;20368;-63
2023/10/01 00:54:19;;;;;;;28.20;26.40;;;;;;;;;;5001090;28;20059;-66
2023/10/01 00:56:44;;;;;;;26.92;25.45;;;;;;;;;;5003321;28;20360;-66
2023/10/01 00:59:10;;;;;;;25.77;24.17;;;;;;;;;;5004591;28;20077;-63
2023/10/01 01:01:39;;;;;;;24.17;22.88;;;;;;;;;;4984051;28;20080;-63
2023/10/01 01:04:09;;;;;;;21.70;20.50;;;;;;;;;;5005161;28;20026;-63
2023/10/01 01:06:37;;;;;;;21.90;20.70;;;;;;;;;;5005379;28;20069;-66
2023/10/01 01:09:03;;;;;;;18.23;17.15;;;;;;;;;;5004547;28;20515;-66
2023/10/01 01:11:29;;;;;;;18.17;17.08;;;;;;;;;;5002220;28;20046;-63
2023/10/01 01:13:57;;;;;;;17.70;16.60;;;;;;;;;;4985667;28;20026;-63
2023/10/01 01:16:25;;;;;;;19.10;17.90;;;;;;;;;;5000269;28;20582;-65
2023/10/01 01:18:51;;;;;;;19.38;18.23;;;;;;;;;;5003439;28;20038;-65
2023/10/01 01:21:17;;;;;;;21.23;19.90;;;;;;;;;;4999040;28;20026;-66
2023/10/01 01:23:45;;;;;;;28.52;26.90;;;;;;;;;;5003729;28;20041;-62
2023/10/01 01:26:13;;;;;;;26.20;24.80;;;;;;;;;;5004324;28;20569;-66
2023/10/01 01:28:41;;;;;;;29.33;27.75;;;;;;;;;;5003381;28;20519;-65
2023/10/01 01:31:08;;;;;;;26.33;24.90;;;;;;;;;;5005584;28;20435;-62
2023/10/01 01:33:40;;;;;;;25.92;24.52;;;;;;;;;;5004112;28;20424;-63
2023/10/01 01:36:09;;;;;;;24.48;22.67;;;;;;;;;;5005631;28;20045;-63
2023/10/01 01:38:37;;;;;;;17.85;16.65;;;;;;;;;;5003218;28;20113;-66
2023/10/01 01:41:06;;;;;;;16.75;15.65;;;;;;;;;;5004468;28;20053;-63
2023/10/01 01:43:31;;;;;;;17.80;16.70;;;;;;;;;;5003971;28;20525;-66
2023/10/01 01:46:08;;;;;;;19.05;17.95;;;;;;;;;;4999792;28;20054;-65
2023/10/01 01:48:37;;;;;;;17.60;16.45;;;;;;;;;;5001223;28;20127;-65
2023/10/01 01:51:04;;;;;;;17.13;16.13;;;;;;;;;;4999110;28;20065;-65
2023/10/01 01:53:36;;;;;;;16.95;15.95;;;;;;;;;;4998933;28;20029;-66
2023/10/01 01:56:05;;;;;;;18.77;17.75;;;;;;;;;;5003323;28;20460;-63
2023/10/01 01:58:35;;;;;;;22.00;20.80;;;;;;;;;;5003935;28;20044;-63
2023/10/01 02:01:07;;;;;;;22.73;21.27;;;;;;;;;;4987721;28;20407;-65
2023/10/01 02:03:39;;;;;;;24.08;22.77;;;;;;;;;;5002867;28;20034;-62
2023/10/01 02:06:07;;;;;;;28.73;27.10;;;;;;;;;;5002677;28;20034;-62
2023/10/01 02:08:54;;;;;;;26.70;25.23;;;;;;;;;;5002815;28;20473;-65
2023/10/01 02:11:20;;;;;;;25.70;24.23;;;;;;;;;;5003556;28;20042;-62
2023/10/01 02:13:47;;;;;;;22.92;21.67;;;;;;;;;;4999823;28;20092;-65
2023/10/01 02:16:30;;;;;;;23.33;22.02;;;;;;;;;;5003752;28;20033;-63
2023/10/01 02:19:17;;;;;;;21.05;19.85;;;;;;;;;;5002565;28;20085;-65
2023/10/01 02:22:05;;;;;;;21.80;20.58;;;;;;;;;;4999528;28;20045;-65
2023/10/01 02:24:45;;;;;;;22.02;20.48;;;;;;;;;;5002307;28;20061;-66
2023/10/01 02:27:18;;;;;;;21.05;19.75;;;;;;;;;;5002059;28;20048;-63
2023/10/01 02:32:28;;;;;;;20.40;19.23;;;;;;;;;;5000889;28;20107;-62
2023/10/01 02:34:56;;;;;;;18.25;17.23;;;;;;;;;;5002296;28;20041;-64
2023/10/01 02:37:29;;;;;;;17.38;16.38;;;;;;;;;;4999054;28;20045;-63
2023/10/01 02:39:56;;;;;;;17.88;16.88;;;;;;;;;;5004525;28;20045;-66
2023/10/01 02:42:22;;;;;;;16.73;15.73;;;;;;;;;;4985020;28;20480;-66
2023/10/01 02:44:48;;;;;;;17.15;16.05;;;;;;;;;;4997464;28;20105;-63
2023/10/01 02:47:18;;;;;;;20.40;19.20;;;;;;;;;;5001483;28;20148;-63
2023/10/01 02:49:49;;;;;;;21.73;20.42;;;;;;;;;;5000626;28;20037;-63
2023/10/01 02:52:22;;;;;;;21.25;19.83;;;;;;;;;;5001437;28;20026;-62
2023/10/01 02:54:53;;;;;;;19.95;18.85;;;;;;;;;;4997702;28;20372;-65
2023/10/01 02:57:26;;;;;;;20.17;19.00;;;;;;;;;;5001636;28;20068;-62
2023/10/01 03:02:38;;;;;;;16.50;15.60;;;;;;;;;;4984567;28;20099;-64
2023/10/01 03:05:14;;;;;;;15.98;14.68;;;;;;;;;;5004643;28;20109;-65
2023/10/01 03:07:39;;;;;;;17.35;16.25;;;;;;;;;;4999249;28;20042;-66
2023/10/01 03:10:14;;;;;;;16.60;15.60;;;;;;;;;;5002333;28;20096;-62
2023/10/01 03:12:40;;;;;;;16.10;15.20;;;;;;;;;;5004289;28;20044;-62
2023/10/01 03:17:39;;;;;;;16.98;15.98;;;;;;;;;;5000355;28;20033;-62
2023/10/01 03:26:04;;;;;;;15.75;14.85;;;;;;;;;;4926197;29;20083;-63
2023/10/01 03:28:34;;;;;;;16.35;15.40;;;;;;;;;;4974531;28;20073;-62
2023/10/01 03:31:06;;;;;;;16.38;15.38;;;;;;;;;;4990985;28;20041;-65
2023/10/01 03:33:39;;;;;;;18.05;17.08;;;;;;;;;;5002757;28;20128;-65
2023/10/01 03:36:09;;;;;;;19.42;18.23;;;;;;;;;;5005663;28;20538;-65
2023/10/01 03:38:36;;;;;;;20.45;19.27;;;;;;;;;;5002287;28;20049;-66
2023/10/01 03:41:06;;;;;;;18.52;17.48;;;;;;;;;;5003616;28;20149;-66
2023/10/01 03:43:37;;;;;;;18.60;17.55;;;;;;;;;;5001988;28;20073;-66
2023/10/01 03:48:58;;;;;;;18.20;17.15;;;;;;;;;;5001930;28;20133;-65
2023/10/01 03:51:29;;;;;;;20.63;19.33;;;;;;;;;;5003893;28;20040;-63
2023/10/01 03:54:06;;;;;;;19.10;17.92;;;;;;;;;;4987968;28;20143;-66
2023/10/01 03:56:33;;;;;;;17.58;16.58;;;;;;;;;;5004445;28;20056;-62
2023/10/01 03:58:59;;;;;;;16.38;15.43;;;;;;;;;;5003935;28;20038;-65
2023/10/01 04:01:58;;;;;;;18.92;17.83;;;;;;;;;;5004441;28;20036;-66
2023/10/01 04:04:15;;;;;;;17.55;16.55;;;;;;;;;;5000772;28;20128;-62
2023/10/01 04:06:40;;;;;;;18.88;17.80;;;;;;;;;;4985091;28;20057;-63
2023/10/01 04:09:06;;;;;;;19.85;18.73;;;;;;;;;;5006108;28;20458;-63
2023/10/01 04:11:49;;;;;;;19.45;18.23;;;;;;;;;;5006912;28;20042;-65
2023/10/01 04:14:17;;;;;;;16.30;15.15;;;;;;;;;;5003842;28;20117;-65
2023/10/01 04:16:46;;;;;;;14.70;13.80;;;;;;;;;;4989731;28;20692;-63
2023/10/01 04:19:16;;;;;;;13.73;12.93;;;;;;;;;;5004473;28;20033;-62
2023/10/01 04:21:43;;;;;;;12.52;11.73;;;;;;;;;;4983620;28;20070;-62
2023/10/01 04:24:09;;;;;;;13.10;12.30;;;;;;;;;;5005378;28;20084;-62
2023/10/01 04:26:35;;;;;;;14.77;13.85;;;;;;;;;;4987799;28;20079;-63
2023/10/01 04:29:01;;;;;;;14.38;13.55;;;;;;;;;;5004434;28;20568;-66
2023/10/01 04:31:42;;;;;;;15.38;14.48;;;;;;;;;;5006729;28;20033;-65
2023/10/01 04:34:12;;;;;;;14.30;13.45;;;;;;;;;;5003106;28;20427;-62
2023/10/01 04:36:38;;;;;;;15.82;14.95;;;;;;;;;;5000863;28;20041;-62
2023/10/01 04:39:04;;;;;;;15.18;14.27;;;;;;;;;;4986273;28;20471;-63
2023/10/01 04:41:29;;;;;;;15.48;14.57;;;;;;;;;;5006785;28;20062;-63
2023/10/01 04:44:06;;;;;;;17.70;16.50;;;;;;;;;;5001990;28;20030;-65
2023/10/01 04:46:40;;;;;;;15.95;14.95;;;;;;;;;;5005131;28;20051;-62
2023/10/01 04:51:53;;;;;;;14.45;13.55;;;;;;;;;;5004060;28;20040;-65
2023/10/01 04:54:21;;;;;;;13.73;12.93;;;;;;;;;;5004505;28;20358;-66
2023/10/01 04:56:50;;;;;;;15.25;14.35;;;;;;;;;;5002458;28;20117;-65
2023/10/01 04:59:16;;;;;;;14.80;13.90;;;;;;;;;;5001960;28;20030;-65
2023/10/01 05:01:42;;;;;;;14.43;13.40;;;;;;;;;;5005647;28;20122;-65
2023/10/01 05:04:11;;;;;;;13.88;13.07;;;;;;;;;;4982597;28;20361;-65
2023/10/01 05:06:37;;;;;;;15.45;14.50;;;;;;;;;;5003686;28;20038;-65
2023/10/01 05:09:07;;;;;;;15.15;14.15;;;;;;;;;;5003593;28;20124;-65
2023/10/01 05:11:33;;;;;;;15.82;14.93;;;;;;;;;;5005253;28;20408;-62
2023/10/01 05:13:58;;;;;;;14.25;13.35;;;;;;;;;;5001393;28;20040;-62
2023/10/01 05:16:27;;;;;;;15.60;14.65;;;;;;;;;;5001365;28;20033;-62
2023/10/01 05:19:09;;;;;;;14.73;13.77;;;;;;;;;;4985959;28;20037;-65
2023/10/01 05:21:46;;;;;;;14.90;14.05;;;;;;;;;;5004870;28;20030;-65
2023/10/01 05:24:31;;;;;;;13.93;13.13;;;;;;;;;;5003026;28;20451;-64
2023/10/01 05:26:57;;;;;;;15.90;15.00;;;;;;;;;;5005249;28;20046;-64
2023/10/01 05:29:25;;;;;;;14.35;13.55;;;;;;;;;;5005609;28;20419;-62
2023/10/01 05:31:51;;;;;;;14.68;13.82;;;;;;;;;;5004541;28;20644;-62
2023/10/01 05:34:17;;;;;;;15.70;14.75;;;;;;;;;;5004254;28;20065;-65
2023/10/01 05:36:42;;;;;;;14.60;13.60;;;;;;;;;;5003609;28;20034;-61
2023/10/01 05:39:11;;;;;;;15.40;14.50;;;;;;;;;;5003828;28;20455;-62
2023/10/01 05:41:37;;;;;;;16.27;15.27;;;;;;;;;;5003879;28;20034;-62
2023/10/01 05:44:04;;;;;;;15.88;14.98;;;;;;;;;;5003691;28;20048;-62
2023/10/01 05:46:30;;;;;;;14.93;14.02;;;;;;;;;;5002860;28;20034;-62
2023/10/01 05:49:00;;;;;;;14.98;14.07;;;;;;;;;;5003215;28;20133;-62
2023/10/01 05:51:42;;;;;;;15.68;14.77;;;;;;;;;;4986695;28;20036;-65
2023/10/01 05:54:09;;;;;;;14.02;13.23;;;;;;;;;;4974215;28;20068;-65
2023/10/01 05:56:43;;;;;;;14.93;14.02;;;;;;;;;;5004112;28;20026;-64
2023/10/01 05:59:11;;;;;;;15.05;14.15;;;;;;;;;;5004186;28;20191;-64
2023/10/01 06:01:39;;;;;;;15.40;14.50;;;;;;;;;;4985765;28;20034;-64
2023/10/01 06:04:09;;;;;;;14.63;13.75;;;;;;;;;;4986179;28;20109;-65
2023/10/01 06:06:36;;;;;;;15.02;14.02;;;;;;;;;;4985155;28;20038;-62
2023/10/01 06:09:01;;;;;;;19.30;17.75;;;;;;;;;;5003909;28;20121;-63
2023/10/01 06:17:00;;;;;;;15.35;14.38;;;;;;;;;;5004442;28;20133;-64
2023/10/01 06:19:32;;;;;;;14.32;13.52;;;;;;;;;;5004294;28;20123;-64
2023/10/01 06:22:12;;;;;;;16.23;15.23;;;;;;;;;;5005298;28;20477;-64
2023/10/01 06:24:39;;;;;;;16.38;14.88;;;;;;;;;;4987273;28;20356;-65
2023/10/01 06:27:06;;;;;;;14.50;13.60;;;;;;;;;;5002925;28;20030;-64
2023/10/01 06:29:33;;;;;;;16.65;15.40;;;;;;;;;;5004021;28;20034;-65
2023/10/01 06:32:01;;;;;;;14.63;13.73;;;;;;;;;;5002537;28;20553;-61
2023/10/01 06:34:34;;;;;;;14.75;13.93;;;;;;;;;;5004601;28;20046;-68
2023/10/01 06:37:01;;;;;;;15.35;14.45;;;;;;;;;;5003191;28;20108;-67
2023/10/01 06:39:32;;;;;;;16.00;15.10;;;;;;;;;;5003681;28;20041;-61
2023/10/01 06:44:43;;;;;;;15.35;14.45;;;;;;;;;;4999943;28;20506;-61
2023/10/01 06:47:14;;;;;;;17.02;16.02;;;;;;;;;;4985828;28;20474;-61
2023/10/01 06:49:57;;;;;;;16.88;15.85;;;;;;;;;;5000883;28;20121;-61
2023/10/01 06:52:27;;;;;;;20.10;18.98;;;;;;;;;;5001547;28;20034;-67
2023/10/01 06:54:55;;;;;;;20.77;19.57;;;;;;;;;;5002135;28;20379;-61
2023/10/01 06:57:23;;;;;;;22.50;21.17;;;;;;;;;;4988126;28;20273;-61
2023/10/01 06:59:49;;;;;;;22.95;21.65;;;;;;;;;;4984141;28;20532;-67
2023/10/01 07:02:15;;;;;;;23.88;22.55;;;;;;;;;;5003336;28;20038;-62
2023/10/01 07:04:41;;;;;;;25.13;23.73;;;;;;;;;;4990285;28;20034;-61
2023/10/01 07:07:20;;;;;;;21.88;20.58;;;;;;;;;;5002652;28;20037;-67
2023/10/01 07:09:46;;;;;;;20.75;19.58;;;;;;;;;;4984770;28;20033;-68
2023/10/01 07:12:12;;;;;;;18.75;17.55;;;;;;;;;;4986890;28;20583;-67
2023/10/01 07:14:38;;;;;;;19.77;18.65;;;;;;;;;;5000679;28;20034;-61
2023/10/01 07:17:09;;;;;;;17.83;16.67;;;;;;;;;;5003581;28;20710;-68
2023/10/01 07:19:38;;;;;;;20.40;19.20;;;;;;;;;;5003603;28;20578;-67
2023/10/01 07:22:09;;;;;;;20.27;19.17;;;;;;;;;;5003301;28;20100;-68
2023/10/01 07:24:35;;;;;;;20.65;19.55;;;;;;;;;;5000215;28;20026;-62
2023/10/01 07:27:06;;;;;;;25.88;24.20;;;;;;;;;;4999285;28;20125;-67
2023/10/01 07:29:35;;;;;;;23.67;22.27;;;;;;;;;;5001813;28;20030;-62
2023/10/01 07:32:07;;;;;;;28.67;27.00;;;;;;;;;;5004216;28;20410;-62
2023/10/01 07:34:39;;;;;;;26.25;24.75;;;;;;;;;;5003256;28;20026;-62
2023/10/01 07:37:05;;;;;;;25.73;24.30;;;;;;;;;;5002745;28;20065;-62
2023/10/01 07:39:32;;;;;;;24.10;22.73;;;;;;;;;;5004421;28;20116;-68
2023/10/01 07:41:59;;;;;;;22.00;20.80;;;;;;;;;;5003405;28;20030;-62
2023/10/01 07:44:24;;;;;;;23.42;22.00;;;;;;;;;;5000028;28;20125;-67
2023/10/01 07:46:50;;;;;;;21.52;20.10;;;;;;;;;;4983320;28;20112;-68
2023/10/01 07:49:18;;;;;;;23.33;21.63;;;;;;;;;;5003044;28;20045;-68
2023/10/01 07:51:44;;;;;;;23.98;22.38;;;;;;;;;;5002783;28;20029;-69
2023/10/01 07:54:10;;;;;;;21.30;20.00;;;;;;;;;;5002874;28;20033;-68
2023/10/01 07:56:39;;;;;;;22.08;20.75;;;;;;;;;;5001193;28;20045;-68
2023/10/01 07:59:28;;;;;;;23.50;22.00;;;;;;;;;;4984254;28;20067;-68
2023/10/01 08:02:09;;;;;;;24.40;22.95;;;;;;;;;;5003115;28;20037;-68
2023/10/01 08:07:15;;;;;;;23.05;21.75;;;;;;;;;;5001015;28;20033;-61
2023/10/01 08:09:51;;;;;;;22.73;21.33;;;;;;;;;;5000851;28;20034;-67
2023/10/01 08:12:37;;;;;;;23.17;21.77;;;;;;;;;;5005622;28;20064;-69
2023/10/01 08:17:54;;;;;;;19.55;18.25;;;;;;;;;;5006846;28;20069;-62
2023/10/01 08:20:28;;;;;;;22.70;21.15;;;;;;;;;;4990699;28;20049;-67
2023/10/01 08:23:12;;;;;;;20.15;19.00;;;;;;;;;;5005436;28;20045;-68
2023/10/01 08:25:42;;;;;;;19.63;18.35;;;;;;;;;;5007307;28;20057;-62
2023/10/01 08:28:29;;;;;;;19.00;17.75;;;;;;;;;;4989980;28;20076;-67
2023/10/01 08:31:42;;;;;;;17.52;16.45;;;;;;;;;;5004206;28;20046;-62
2023/10/01 08:33:51;;;;;;;18.98;17.80;;;;;;;;;;4988553;28;20062;-67
2023/10/01 08:36:24;;;;;;;18.83;17.60;;;;;;;;;;5005224;28;20069;-62
2023/10/01 08:39:20;;;;;;;17.75;16.33;;;;;;;;;;5005589;28;20040;-68
2023/10/01 08:41:50;;;;;;;18.58;17.33;;;;;;;;;;5004079;28;20126;-68
2023/10/01 08:44:20;;;;;;;19.15;17.45;;;;;;;;;;5002276;28;20113;-68
2023/10/01 08:46:47;;;;;;;17.30;16.25;;;;;;;;;;5005970;28;20038;-62
2023/10/01 08:49:23;;;;;;;17.25;16.25;;;;;;;;;;4989284;28;20075;-62
2023/10/01 08:51:52;;;;;;;20.02;18.73;;;;;;;;;;5004661;28;20227;-62
2023/10/01 08:54:23;;;;;;;18.92;17.80;;;;;;;;;;5004046;28;20037;-68
2023/10/01 08:56:49;;;;;;;;;;;;;;;;;;4989367;28;20041;-62
2023/10/01 08:59:23;;;;;;;20.88;19.52;;;;;;;;;;5004931;28;19917;-62
2023/10/01 09:01:52;;;;;;;20.25;18.67;;;;;;;;;;5003682;28;20093;-62
2023/10/01 09:04:29;;;;;;;19.60;17.70;;;;;;;;;;5003836;28;20037;-67
2023/10/01 09:07:03;;;;;;;17.85;16.65;;;;;;;;;;5005737;28;20070;-68
2023/10/01 09:09:51;;;;;;;17.63;16.45;;;;;;;;;;5007444;28;20128;-68
2023/10/01 09:12:18;;;;;;;18.25;17.15;;;;;;;;;;5008065;28;20041;-64
2023/10/01 09:14:46;;;;;;;17.00;15.93;;;;;;;;;;5004753;28;20109;-64
2023/10/01 09:17:24;;;;;;;15.95;15.02;;;;;;;;;;5005021;28;20037;-62
2023/10/01 09:19:51;;;;;;;18.05;16.75;;;;;;;;;;5004809;28;20030;-62
2023/10/01 09:22:42;;;;;;;16.60;15.60;;;;;;;;;;5002624;28;20088;-62
2023/10/01 09:25:20;;;;;;;17.88;16.77;;;;;;;;;;5003606;28;20103;-62
2023/10/01 09:28:02;;;;;;;17.05;15.95;;;;;;;;;;5004076;28;20034;-68
2023/10/01 09:30:31;;;;;;;19.27;18.00;;;;;;;;;;5003387;28;20033;-68
2023/10/01 09:33:04;;;;;;;17.70;16.42;;;;;;;;;;5003082;28;20041;-62
2023/10/01 09:35:42;;;;;;;18.05;17.02;;;;;;;;;;4985119;28;20653;-67
2023/10/01 09:38:11;;;;;;;18.27;17.08;;;;;;;;;;5000503;28;20029;-67
2023/10/01 09:40:45;;;;;;;19.45;18.15;;;;;;;;;;5004562;28;20080;-68
2023/10/01 09:43:18;;;;;;;21.00;19.80;;;;;;;;;;5000324;28;20033;-68
2023/10/01 09:45:47;;;;;;;20.15;18.85;;;;;;;;;;5003753;28;20065;-62
2023/10/01 09:48:30;;;;;;;19.05;17.85;;;;;;;;;;4970755;28;20038;-68
2023/10/01 09:51:08;;;;;;;19.27;17.75;;;;;;;;;;5003895;28;20050;-68
2023/10/01 09:53:55;;;;;;;20.48;19.27;;;;;;;;;;5003234;28;20026;-67
2023/10/01 09:56:46;;;;;;;20.27;19.08;;;;;;;;;;4987258;28;20061;-62
2023/10/01 09:59:13;;;;;;;19.58;18.38;;;;;;;;;;4987361;28;20505;-62
2023/10/01 10:01:40;;;;;;;19.58;18.25;;;;;;;;;;5005216;28;20056;-62
2023/10/01 10:04:08;;;;;;;20.17;18.88;;;;;;;;;;5005211;28;20025;-62
2023/10/01 10:06:34;;;;;;;19.67;18.38;;;;;;;;;;4988941;28;20033;-63
2023/10/01 10:09:04;;;;;;;18.25;17.15;;;;;;;;;;5001157;28;20092;-63
2023/10/01 10:11:30;;;;;;;19.15;18.02;;;;;;;;;;4985899;28;20120;-62
2023/10/01 10:13:58;;;;;;;19.40;18.20;;;;;;;;;;5003103;28;20120;-63
2023/10/01 10:16:30;;;;;;;19.40;18.10;;;;;;;;;;4988506;28;20029;-68
2023/10/01 10:19:13;;;;;;;20.63;19.23;;;;;;;;;;4987677;28;20095;-68
2023/10/01 10:24:29;;;;;;;18.95;17.85;;;;;;;;;;5001976;28;20595;-62
2023/10/01 10:27:00;;;;;;;22.50;21.20;;;;;;;;;;5001213;28;20677;-62
2023/10/01 10:29:57;;;;;;;21.73;20.20;;;;;;;;;;5001519;28;20046;-62
2023/10/01 10:32:30;;;;;;;20.48;19.17;;;;;;;;;;5004082;28;20046;-62
2023/10/01 10:35:03;;;;;;;20.73;19.13;;;;;;;;;;5002518;28;20064;-63
2023/10/01 10:37:38;;;;;;;21.05;19.83;;;;;;;;;;5003917;28;20076;-63
2023/10/01 10:40:22;;;;;;;20.88;19.65;;;;;;;;;;5001888;28;20047;-63
2023/10/01 10:42:57;;;;;;;21.35;20.08;;;;;;;;;;5003989;28;20569;-62
2023/10/01 10:45:57;;;;;;;18.92;17.83;;;;;;;;;;5002087;28;20069;-63
2023/10/01 10:48:49;;;;;;;23.70;22.23;;;;;;;;;;5003419;28;20034;-62
2023/10/01 10:51:43;;;;;;;19.83;18.65;;;;;;;;;;5003818;28;20447;-67
2023/10/01 10:54:09;;;;;;;23.33;21.83;;;;;;;;;;5002006;28;20050;-63
2023/10/01 10:56:39;;;;;;;22.92;21.52;;;;;;;;;;5004325;28;20041;-67
2023/10/01 10:59:05;;;;;;;22.52;21.33;;;;;;;;;;5003697;28;20049;-67
2023/10/01 11:01:43;;;;;;;20.58;19.30;;;;;;;;;;5002430;28;20103;-68
2023/10/01 11:04:09;;;;;;;21.17;19.83;;;;;;;;;;5001780;28;20030;-63
2023/10/01 11:06:44;;;;;;;23.45;22.08;;;;;;;;;;5002345;28;20022;-63
2023/10/01 11:09:22;;;;;;;30.85;28.52;;;;;;;;;;4984391;28;20052;-63
2023/10/01 11:11:49;;;;;;;27.92;26.42;;;;;;;;;;5001739;28;20037;-62
2023/10/01 11:14:18;;;;;;;36.13;34.17;;;;;;;;;;4981856;28;20057;-62
2023/10/01 11:16:48;;;;;;;46.58;44.17;;;;;;;;;;5001880;28;20041;-63
2023/10/01 11:19:21;;;;;;;34.70;32.83;;;;;;;;;;5000332;28;20045;-62
2023/10/01 11:21:55;;;;;;;41.83;39.58;;;;;;;;;;5001942;28;20110;-62
2023/10/01 11:24:31;;;;;;;51.30;48.40;;;;;;;;;;4982799;28;20041;-68
2023/10/01 11:27:14;;;;;;;54.92;52.05;;;;;;;;;;5003856;28;20100;-68
2023/10/01 11:30:12;;;;;;;52.35;49.55;;;;;;;;;;5001842;28;20030;-67
2023/10/01 11:33:01;;;;;;;50.67;48.05;;;;;;;;;;4998711;28;20046;-63
2023/10/01 11:35:41;;;;;;;49.72;47.13;;;;;;;;;;5001064;28;20627;-62
2023/10/01 11:38:22;;;;;;;54.25;51.40;;;;;;;;;;5000310;28;20034;-62
2023/10/01 11:41:07;;;;;;;53.90;51.05;;;;;;;;;;4999850;28;20088;-62
2023/10/01 11:43:58;;;;;;;56.38;53.47;;;;;;;;;;4999876;28;20694;-62
2023/10/01 11:46:34;;;;;;;56.22;52.80;;;;;;;;;;5004014;28;20076;-67
2023/10/01 11:49:06;;;;;;;49.15;46.50;;;;;;;;;;5005197;28;20111;-67
2023/10/01 11:51:54;;;;;;;56.92;53.58;;;;;;;;;;5007898;28;20041;-67
2023/10/01 11:55:18;;;;;;;54.85;52.03;;;;;;;;;;5005381;28;20523;-67
2023/10/01 11:57:25;;;;;;;60.28;57.00;;;;;;;;;;4991235;28;20050;-62
2023/10/01 11:59:56;;;;;;;55.42;52.42;;;;;;;;;;5005026;28;20030;-67
2023/10/01 12:02:33;;;;;;;56.72;53.83;;;;;;;;;;5005889;28;20046;-68
2023/10/01 12:05:02;;;;;;;56.88;53.78;;;;;;;;;;5004639;28;20133;-62
2023/10/01 12:07:44;;;;;;;57.88;54.88;;;;;;;;;;5002466;28;20091;-62
2023/10/01 12:12:56;;;;;;;52.33;48.95;;;;;;;;;;5007064;28;20040;-63
2023/10/01 12:15:34;;;;;;;44.10;41.70;;;;;;;;;;5002827;28;20034;-63
2023/10/01 12:18:07;;;;;;;53.55;50.60;;;;;;;;;;5007050;28;20038;-67
2023/10/01 12:20:50;;;;;;;58.63;55.30;;;;;;;;;;5002668;28;20045;-62
2023/10/01 12:23:19;;;;;;;45.95;43.42;;;;;;;;;;5004281;28;20044;-68
2023/10/01 12:25:46;;;;;;;48.58;45.88;;;;;;;;;;5003832;28;20106;-69
2023/10/01 12:28:18;;;;;;;51.00;48.17;;;;;;;;;;5004663;28;20061;-69
2023/10/01 12:30:57;;;;;;;44.50;41.75;;;;;;;;;;4989844;28;20033;-62
2023/10/01 12:33:23;;;;;;;38.90;36.80;;;;;;;;;;5005670;28;20030;-62
2023/10/01 12:35:48;;;;;;;40.38;38.15;;;;;;;;;;5005275;28;20030;-62
2023/10/01 12:40:52;;;;;;;38.05;36.05;;;;;;;;;;5007627;28;20022;-69
2023/10/01 12:46:13;;;;;;;31.17;29.40;;;;;;;;;;4987859;28;20073;-62
2023/10/01 12:49:12;;;;;;;36.78;34.50;;;;;;;;;;5006417;28;20077;-62
2023/10/01 12:51:33;;;;;;;33.95;32.05;;;;;;;;;;5006442;28;20081;-68
2023/10/01 12:53:59;;;;;;;30.33;28.10;;;;;;;;;;5004108;28;20072;-68
2023/10/01 12:56:44;;;;;;;29.88;28.15;;;;;;;;;;5003251;28;20085;-66
2023/10/01 12:59:18;;;;;;;28.45;26.83;;;;;;;;;;4971485;28;20037;-69
2023/10/01 13:01:53;;;;;;;31.77;29.92;;;;;;;;;;5004553;28;20092;-67
2023/10/01 13:04:22;;;;;;;30.02;28.38;;;;;;;;;;5002669;28;20364;-67
2023/10/01 13:06:49;;;;;;;33.45;31.52;;;;;;;;;;5001873;28;20388;-68
2023/10/01 13:12:06;;;;;;;32.05;30.25;;;;;;;;;;5003899;28;20045;-62
2023/10/01 13:14:32;;;;;;;28.65;27.05;;;;;;;;;;5001592;28;20037;-68
2023/10/01 13:17:00;;;;;;;27.42;25.73;;;;;;;;;;4988604;28;20045;-67
2023/10/01 13:19:35;;;;;;;29.33;27.63;;;;;;;;;;5001974;28;20029;-62
2023/10/01 13:22:06;;;;;;;32.50;30.27;;;;;;;;;;4989414;28;20145;-62
2023/10/01 13:24:32;;;;;;;30.55;28.67;;;;;;;;;;5005784;28;20030;-67
2023/10/01 13:27:10;;;;;;;45.80;43.15;;;;;;;;;;5002267;28;20499;-62
2023/10/01 13:29:39;;;;;;;27.70;26.20;;;;;;;;;;5001431;28;20034;-62
2023/10/01 13:32:15;;;;;;;36.42;34.08;;;;;;;;;;5004712;28;20034;-63
2023/10/01 13:34:48;;;;;;;40.45;38.15;;;;;;;;;;5000022;28;20034;-62
2023/10/01 13:37:42;;;;;;;57.38;54.33;;;;;;;;;;5002181;28;20034;-63
2023/10/01 13:40:19;;;;;;;58.25;55.17;;;;;;;;;;5003248;28;20038;-63
2023/10/01 14:10:24;;;;;;;43.83;41.40;;;;;;;;;;5001436;28;20026;-68
2023/10/01 14:12:56;;;;;;;68.93;64.97;;;;;;;;;;5002844;28;20121;-68
2023/10/01 14:15:23;;;;;;;68.25;64.78;;;;;;;;;;5001647;28;20045;-62
2023/10/01 14:18:00;;;;;;;58.15;54.60;;;;;;;;;;5004794;28;20065;-61
2023/10/01 14:23:22;;;;;;;49.78;47.03;;;;;;;;;;5004645;28;20149;-63
2023/10/01 14:25:58;;;;;;;72.97;68.90;;;;;;;;;;5001483;28;20045;-62
2023/10/01 14:28:27;;;;;;;78.25;74.30;;;;;;;;;;5003605;28;20040;-65
2023/10/01 14:31:02;;;;;;;44.03;41.22;;;;;;;;;;5000878;28;20331;-71
2023/10/01 14:33:29;;;;;;;52.55;49.67;;;;;;;;;;5003227;28;20223;-71
2023/10/01 14:35:57;;;;;;;75.80;71.82;;;;;;;;;;5004255;28;20041;-69
2023/10/01 14:38:33;;;;;;;74.45;70.53;;;;;;;;;;5003955;28;20494;-70
2023/10/01 14:40:59;;;;;;;59.92;56.50;;;;;;;;;;5003080;28;20129;-65
2023/10/01 14:43:27;;;;;;;43.30;40.70;;;;;;;;;;5002318;28;20168;-65
2023/10/01 14:45:53;;;;;;;63.05;59.72;;;;;;;;;;5003072;28;20049;-65
2023/10/01 14:48:19;;;;;;;58.50;55.28;;;;;;;;;;5003058;28;20379;-65
2023/10/01 14:50:45;;;;;;;60.10;56.88;;;;;;;;;;5002081;28;20042;-70
2023/10/01 14:53:18;;;;;;;61.63;58.42;;;;;;;;;;5002379;28;20430;-71
2023/10/01 14:55:44;;;;;;;64.03;60.75;;;;;;;;;;5002186;28;20609;-71
2023/10/01 14:58:15;;;;;;;81.18;76.95;;;;;;;;;;5004567;28;20041;-71
2023/10/01 15:00:56;;;;;;;43.08;40.33;;;;;;;;;;4999065;28;20033;-70
2023/10/01 15:03:29;;;;;;;59.42;56.33;;;;;;;;;;5003437;28;20475;-65
2023/10/01 15:05:55;;;;;;;58.83;55.67;;;;;;;;;;5000821;28;20071;-71
2023/10/01 15:08:20;;;;;;;51.15;48.50;;;;;;;;;;4983031;28;20064;-70
2023/10/01 15:10:51;;;;;;;53.28;50.25;;;;;;;;;;4999646;28;20037;-69
2023/10/01 15:13:33;;;;;;;41.05;38.78;;;;;;;;;;5002388;28;20323;-69
2023/10/01 15:16:02;;;;;;;51.10;48.35;;;;;;;;;;5001329;28;20025;-70
2023/10/01 15:18:28;;;;;;;55.08;52.22;;;;;;;;;;4998942;28;20088;-68
2023/10/01 15:20:54;;;;;;;33.63;31.83;;;;;;;;;;5001123;28;20498;-69
2023/10/01 15:23:20;;;;;;;38.72;36.65;;;;;;;;;;4999294;28;20452;-69
2023/10/01 15:25:46;;;;;;;45.10;41.95;;;;;;;;;;5003783;28;20132;-63
2023/10/01 15:28:15;;;;;;;28.20;26.52;;;;;;;;;;5000814;28;20025;-70
2023/10/01 15:30:48;;;;;;;32.33;30.27;;;;;;;;;;5002087;28;20049;-69
2023/10/01 15:33:16;;;;;;;25.13;23.73;;;;;;;;;;5002724;28;20482;-70
2023/10/01 15:35:48;;;;;;;29.40;27.40;;;;;;;;;;5005647;28;20034;-69
2023/10/01 15:38:26;;;;;;;29.88;28.20;;;;;;;;;;5001679;28;20036;-64
2023/10/01 15:40:56;;;;;;;28.30;26.65;;;;;;;;;;5002262;28;20072;-64
2023/10/01 15:43:22;;;;;;;28.13;26.63;;;;;;;;;;4998517;28;20484;-64
2023/10/01 15:45:50;;;;;;;33.55;31.50;;;;;;;;;;5002241;28;20072;-64
2023/10/01 15:48:19;;;;;;;30.00;28.33;;;;;;;;;;4985918;28;20182;-65
2023/10/01 15:50:46;;;;;;;30.00;28.40;;;;;;;;;;5002027;28;20035;-64
2023/10/01 15:53:21;;;;;;;34.30;32.40;;;;;;;;;;5001879;28;20483;-70
2023/10/01 15:55:56;;;;;;;38.85;36.75;;;;;;;;;;5001552;28;20026;-70
2023/10/01 15:58:25;;;;;;;33.45;31.45;;;;;;;;;;5002667;28;20037;-69
2023/10/01 16:00:52;;;;;;;32.67;30.55;;;;;;;;;;4982745;28;20057;-69